Latest Weather Observations for Condobolin Airport

IDN60801

Issued at 11:02 am EST Saturday 23 May 2015 (issued every 30 minutes, with the page automatically refreshed every 10 minutes)

About weather observations | Map of weather stations | Latest weather observations for NSW | Other Formats
Station Details ID: 050137 Name: CONDOBOLIN AIRPORT AWS Lat: -33.07 Lon: 147.21 Height: 192.6 m
Data from the previous 72 hours. | See also: Recent months at Condobolin Airport
Date/Time
EST
Temp
°C
App
Temp
°C
Dew
Point
Rel
Hum
%
Delta-T
°C
Wind Press
QNH
hPa
Press
MSL
hPa
Rain
since 9 am
mm
Dir
 
Spd
km/h
Gust
km/h
Spd
kts
Gust
kts
23/10:30am 13.7 10.3 7.5 66 3.0 SE 15 20 8 11 1031.1 1031.1 0.0
23/10:00am 12.3 9.2 7.2 71 2.5 ESE 13 17 7 9 1031.1 1031.1 0.0
23/09:30am 11.1 8.2 8.0 81 1.5 E 13 19 7 10 1031.0 1031.0 0.0
23/09:00am 8.5 6.2 7.6 94 0.4 E 9 11 5 6 1030.8 1030.8 0.0
23/08:30am 7.2 5.4 7.1 99 0.0 E 6 7 3 4 1030.7 1030.7 0.0
23/08:00am 5.2 4.1 5.1 99 0.0 CALM 0 0 0 0 1030.1 1030.2 0.0
23/07:30am 2.3 0.7 2.2 99 0.0 CALM 0 0 0 0 1029.8 1029.9 0.0
23/07:00am 1.3 -0.9 1.2 99 0.0 ENE 2 6 1 3 1029.5 1029.6 0.0
23/06:30am 1.8 0.0 1.5 98 0.1 CALM 0 0 0 0 1029.3 1029.4 0.0
23/06:00am 2.0 0.3 1.9 99 0.0 CALM 0 0 0 0 1028.8 1028.9 0.0
23/05:30am 2.7 1.1 2.6 99 0.0 CALM 0 0 0 0 1028.6 1028.7 0.0
23/05:00am 2.9 1.4 2.8 99 0.0 CALM 0 0 0 0 1028.5 1028.6 0.0
23/04:30am 3.4 2.0 3.3 99 0.0 CALM 0 0 0 0 1028.2 1028.3 0.0
23/04:00am 3.2 1.7 3.1 99 0.0 CALM 0 0 0 0 1028.1 1028.2 0.0
23/03:30am 2.8 1.2 2.4 97 0.2 CALM 0 0 0 0 1028.0 1028.0 0.0
23/03:00am 3.4 1.9 3.1 98 0.1 CALM 0 0 0 0 1027.7 1027.7 0.0
23/02:30am 3.5 1.6 3.1 97 0.2 NE 2 6 1 3 1027.7 1027.7 0.0
23/02:00am 3.7 2.2 3.1 96 0.2 CALM 0 0 0 0 1027.9 1027.9 0.0
23/01:30am 4.1 2.7 3.5 96 0.2 CALM 0 0 0 0 1028.1 1028.2 0.0
23/01:00am 4.4 3.0 3.8 96 0.3 CALM 0 0 0 0 1027.8 1027.8 0.0
23/12:30am 4.9 3.6 4.2 95 0.3 CALM 0 0 0 0 1028.0 1028.0 0.0
23/12:00am 5.0 3.7 4.1 94 0.4 CALM 0 0 0 0 1028.1 1028.2 0.0
 
Date/Time
EST
Temp
°C
App
Temp
°C
Dew
Point
Rel
Hum
%
Delta-T
°C
Wind Press
QNH
hPa
Press
MSL
hPa
Rain
since 9 am
mm
Dir
 
Spd
km/h
Gust
km/h
Spd
kts
Gust
kts
22/11:30pm 5.4 4.2 4.4 93 0.4 CALM 0 0 0 0 1028.1 1028.2 0.0
22/11:00pm 6.0 4.8 4.8 92 0.5 CALM 0 0 0 0 1027.7 1027.7 0.0
22/10:30pm 6.8 5.7 5.3 90 0.7 CALM 0 0 0 0 1027.7 1027.7 0.0
22/10:00pm 7.8 7.0 6.6 92 0.6 CALM 0 0 0 0 1027.7 1027.7 0.0
22/09:30pm 8.5 7.5 7.4 93 0.5 W 2 6 1 3 1027.3 1027.3 0.0
22/09:00pm 8.0 5.9 6.5 90 0.7 WSW 7 9 4 5 1027.0 1027.0 0.0
22/08:30pm 8.5 7.8 6.8 89 0.8 CALM 0 0 0 0 1026.7 1026.7 0.0
22/08:00pm 9.3 7.4 7.4 88 0.9 WSW 7 9 4 5 1026.4 1026.4 0.0
22/07:30pm 10.0 9.0 7.4 84 1.3 SE 2 7 1 4 1026.2 1026.2 0.0
22/07:00pm 10.8 10.2 7.3 79 1.7 CALM 0 0 0 0 1025.9 1025.9 0.0
22/06:30pm 12.0 11.5 7.9 76 2.0 CALM 0 4 0 2 1025.5 1025.5 0.0
22/06:00pm 13.2 11.6 7.9 70 2.6 SE 6 7 3 4 1025.1 1025.1 0.0
22/05:30pm 14.7 13.0 8.2 65 3.3 SE 7 9 4 5 1024.5 1024.6 0.0
22/05:00pm 15.8 13.7 8.3 61 3.8 SE 9 15 5 8 1024.3 1024.4 0.0
22/04:30pm 17.2 14.4 8.6 57 4.5 SE 13 20 7 11 1023.9 1024.0 0.0
22/04:00pm 17.1 14.3 8.5 57 4.4 SSE 13 17 7 9 1023.7 1023.8 0.0
22/03:30pm 18.0 14.4 8.3 53 5.0 S 17 24 9 13 1023.5 1023.5 0.0
22/03:00pm 18.3 14.4 8.6 53 5.0 SSE 19 26 10 14 1023.2 1023.2 0.0
22/02:30pm 18.6 14.1 8.6 52 5.2 S 22 30 12 16 1023.1 1023.1 0.0
22/02:00pm 18.8 14.4 9.0 53 5.2 SSW 22 33 12 18 1022.9 1022.9 0.0
22/01:30pm 18.4 14.5 8.7 53 5.1 SSW 19 26 10 14 1023.0 1023.0 0.0
22/01:00pm 17.9 14.5 9.3 57 4.5 S 17 26 9 14 1023.0 1023.0 0.0
22/12:30pm 17.4 13.3 8.8 57 4.5 S 20 30 11 16 1023.0 1023.0 0.0
22/12:00pm 16.9 13.0 9.6 62 3.8 SSW 20 24 11 13 1023.0 1023.0 0.0
22/11:30am 16.1 13.0 10.2 68 3.1 SSW 17 24 9 13 1023.2 1023.2 0.0
22/11:00am 15.0 12.6 10.0 72 2.6 SW 13 20 7 11 1023.5 1023.5 0.0
22/10:30am 13.9 10.7 9.9 77 2.1 SSW 17 22 9 12 1023.7 1023.8 0.0
22/10:00am 13.0 10.0 10.5 85 1.3 SW 17 22 9 12 1023.5 1023.5 0.0
22/09:30am 11.6 8.5 10.3 92 0.7 SW 17 20 9 11 1023.4 1023.4 0.0
22/09:00am 10.5 8.5 10.0 97 0.3 SW 11 13 6 7 1023.0 1023.0 0.0
22/08:30am 9.5 7.7 9.4 99 0.1 SW 9 13 5 7 1022.7 1022.7 0.0
22/08:00am 9.0 6.3 8.9 99 0.0 SW 13 17 7 9 1022.5 1022.5 0.0
22/07:30am 8.7 5.1 8.4 98 0.1 SW 17 22 9 12 1022.3 1022.3 0.0
22/07:00am 8.5 4.8 8.1 97 0.2 SW 17 24 9 13 1021.8 1021.8 0.0
22/06:30am 8.5 5.5 7.9 96 0.3 SW 13 17 7 9 1021.3 1021.3 0.0
22/06:00am 8.8 5.5 8.2 96 0.3 SW 15 17 8 9 1021.1 1021.1 0.0
22/05:30am 9.4 5.9 8.6 95 0.4 SW 17 20 9 11 1020.6 1020.6 0.0
22/05:00am 9.5 6.8 8.9 96 0.3 SW 13 17 7 9 1020.5 1020.5 0.0
22/04:30am 9.3 6.2 9.0 98 0.1 WSW 15 20 8 11 1020.3 1020.3 0.0
22/04:00am 9.2 6.9 9.1 99 0.0 WSW 11 15 6 8 1020.2 1020.2 0.0
22/03:30am 8.7 6.3 8.6 99 0.0 WSW 11 13 6 7 1020.2 1020.2 0.0
22/03:00am 8.7 7.0 8.4 98 0.1 WSW 7 9 4 5 1020.3 1020.3 0.0
22/02:30am 8.7 6.6 8.3 97 0.2 SW 9 13 5 7 1020.2 1020.2 0.0
22/02:00am 9.1 6.3 8.5 96 0.3 SW 13 15 7 8 1020.1 1020.1 0.0
22/01:30am 9.6 6.9 9.0 96 0.3 SW 13 15 7 8 1020.0 1020.0 0.0
22/01:00am 9.5 7.1 8.7 95 0.4 SW 11 15 6 8 1019.9 1019.9 0.0
22/12:30am 9.8 7.2 9.2 96 0.3 WSW 13 15 7 8 1020.2 1020.2 0.0
22/12:00am 9.5 7.5 8.7 95 0.4 SW 9 11 5 6 1020.4 1020.4 0.0
 
Date/Time
EST
Temp
°C
App
Temp
°C
Dew
Point
Rel
Hum
%
Delta-T
°C
Wind Press
QNH
hPa
Press
MSL
hPa
Rain
since 9 am
mm
Dir
 
Spd
km/h
Gust
km/h
Spd
kts
Gust
kts
21/11:30pm 9.6 7.2 8.7 94 0.4 SW 11 15 6 8 1020.3 1020.3 0.0
21/11:00pm 10.2 6.4 9.1 93 0.5 SW 19 24 10 13 1020.1 1020.1 0.0
21/10:30pm 10.6 7.6 9.2 91 0.7 SW 15 20 8 11 1020.3 1020.3 0.0
21/10:00pm 10.8 7.8 9.2 90 0.8 SSW 15 17 8 9 1020.4 1020.4 0.0
21/09:30pm 11.1 7.7 9.2 88 1.0 SSW 17 24 9 13 1020.2 1020.2 0.0
21/09:00pm 11.6 7.6 9.2 85 1.2 SSW 20 26 11 14 1020.0 1020.0 0.0
21/08:30pm 11.8 8.9 9.7 87 1.1 SW 15 20 8 11 1020.0 1020.0 0.0
21/08:00pm 11.8 8.1 9.4 85 1.2 SW 19 24 10 13 1019.8 1019.8 0.0
21/07:30pm 12.2 8.6 9.8 85 1.2 SW 19 26 10 14 1019.1 1019.1 0.0
21/07:00pm 12.1 8.3 9.1 82 1.5 SW 19 24 10 13 1019.3 1019.4 0.0
21/06:30pm 13.0 9.3 9.6 80 1.8 WSW 19 26 10 14 1019.1 1019.1 0.0
21/06:00pm 13.7 11.6 9.7 77 2.1 W 11 15 6 8 1019.3 1019.4 0.0
21/05:30pm 14.0 11.8 9.2 73 2.5 WSW 11 15 6 8 1018.7 1018.7 0.0
21/05:00pm 14.5 12.6 9.1 70 2.8 SW 9 13 5 7 1018.5 1018.5 0.0
21/04:30pm 15.2 12.2 9.1 67 3.2 SSW 15 19 8 10 1018.0 1018.0 0.0
21/04:00pm 15.6 13.3 9.1 65 3.4 SW 11 13 6 7 1018.2 1018.2 0.0
21/03:30pm 15.8 13.0 8.5 62 3.7 SSW 13 15 7 8 1018.1 1018.1 0.0
21/03:00pm 15.8 13.4 8.5 62 3.7 SSW 11 13 6 7 1018.2 1018.2 0.0
21/02:30pm 15.8 13.4 8.5 62 3.7 WSW 11 15 6 8 1018.2 1018.2 0.0
21/02:00pm 15.8 13.2 9.5 66 3.3 WSW 13 17 7 9 1018.4 1018.4 0.0
21/01:30pm 15.8 13.1 8.8 63 3.6 WSW 13 19 7 10 1018.8 1018.8 0.0
21/01:00pm 16.1 13.9 9.3 64 3.5 W 11 19 6 10 1019.0 1019.0 0.0
21/12:30pm 15.2 13.2 10.2 72 2.6 SW 11 13 6 7 1019.4 1019.5 0.0
21/12:00pm 15.3 15.3 11.1 76 2.3 SSE 2 7 1 4 1019.9 1019.9 0.0
21/11:30am 14.9 14.4 10.7 76 2.2 WSW 4 9 2 5 1020.3 1020.3 0.0
21/11:00am 15.2 14.5 11.4 78 2.1 S 6 9 3 5 1020.5 1020.5 0.0
21/10:30am 14.6 13.7 11.2 80 1.8 SSW 7 11 4 6 1020.6 1020.6 0.0
21/10:00am 14.1 13.4 11.3 83 1.5 ESE 6 9 3 5 1020.5 1020.5 0.0
21/09:30am 14.1 14.9 12.7 91 0.8 CALM 0 6 0 3 1020.4 1020.4 0.0
21/09:00am 12.3 12.9 11.8 97 0.3 CALM 0 0 0 0 1020.2 1020.2 0.0
21/08:30am 11.3 10.5 11.1 99 0.1 ENE 6 9 3 5 1020.2 1020.2 0.0
21/08:00am 9.7 9.6 9.6 99 0.1 CALM 0 0 0 0 1020.2 1020.2 0.0
21/07:30am 7.0 5.9 6.9 99 0.0 NE 2 6 1 3 1020.0 1020.0 0.0
21/07:00am 6.2 4.9 6.1 99 0.0 E 2 7 1 4 1020.0 1020.0 0.0
21/06:30am 7.0 6.3 6.9 99 0.0 CALM 0 0 0 0 1019.7 1019.7 0.0
21/06:00am 9.1 7.6 9.0 99 0.0 W 7 9 4 5 1019.3 1019.4 0.0
21/05:30am 8.2 6.4 8.1 99 0.0 WNW 7 9 4 5 1019.1 1019.1 0.0
21/05:00am 8.6 6.6 8.5 99 0.0 WNW 9 9 5 5 1018.9 1018.9 0.0
21/04:30am 8.8 6.8 8.7 99 0.0 WNW 9 9 5 5 1018.8 1018.8 0.0
21/04:00am 9.2 6.9 9.1 99 0.0 WNW 11 11 6 6 1018.8 1018.8 0.0
21/03:30am 9.2 7.3 9.1 99 0.0 WNW 9 11 5 6 1018.7 1018.7 0.0
21/03:00am 9.5 7.7 9.4 99 0.0 NW 9 11 5 6 1018.9 1018.9 0.0
21/02:30am 9.4 7.6 9.3 99 0.0 NW 9 11 5 6 1018.8 1018.8 0.0
21/02:00am 9.7 8.3 9.6 99 0.1 WNW 7 9 4 5 1018.7 1018.7 0.0
21/01:30am 10.2 8.5 9.9 98 0.2 WNW 9 9 5 5 1018.9 1018.9 0.0
21/01:00am 10.6 9.3 10.1 97 0.3 W 7 9 4 5 1018.9 1018.9 0.0
21/12:30am 11.6 10.2 11.0 96 0.3 W 9 11 5 6 1019.0 1019.0 0.0
21/12:00am 12.5 11.3 11.6 94 0.5 WNW 9 9 5 5 1019.1 1019.1 0.0
 
Date/Time
EST
Temp
°C
App
Temp
°C
Dew
Point
Rel
Hum
%
Delta-T
°C
Wind Press
QNH
hPa
Press
MSL
hPa
Rain
since 9 am
mm
Dir
 
Spd
km/h
Gust
km/h
Spd
kts
Gust
kts
20/11:30pm 13.0 12.4 12.2 95 0.4 WNW 7 9 4 5 1019.2 1019.2 0.0
20/11:00pm 13.3 12.7 12.2 93 0.6 WNW 7 7 4 4 1019.3 1019.4 0.0
20/10:30pm 13.3 12.6 12.0 92 0.7 WNW 7 7 4 4 1019.3 1019.4 0.0
20/10:00pm 13.7 13.1 12.4 92 0.7 WNW 7 9 4 5 1019.2 1019.2 0.0
20/09:30pm 13.6 12.5 11.8 89 1.0 WSW 9 11 5 6 1019.1 1019.1 0.0
20/09:00pm 14.6 13.3 12.5 87 1.2 WSW 11 13 6 7 1018.9 1018.9 0.0
20/08:30pm 14.7 13.4 12.4 86 1.3 SW 11 15 6 8 1018.5 1018.5 0.0
20/08:00pm 15.0 13.3 12.5 85 1.4 WSW 13 17 7 9 1018.3 1018.3 0.0
20/07:30pm 15.2 14.0 12.7 85 1.4 W 11 15 6 8 1017.9 1017.9 0.0
20/07:00pm 15.7 14.9 12.8 83 1.6 W 9 11 5 6 1017.6 1017.6 0.0
20/06:30pm 16.0 15.2 12.9 82 1.7 WSW 9 13 5 7 1016.9 1016.9 0.0
20/06:00pm 16.3 15.7 13.6 84 1.5 WSW 9 11 5 6 1016.9 1016.9 0.0
20/05:30pm 16.9 16.0 13.8 82 1.8 WSW 11 15 6 8 1016.4 1016.4 0.0
20/05:00pm 17.5 15.9 14.0 80 2.0 SW 15 19 8 10 1016.3 1016.3 0.0
20/04:30pm 18.3 17.2 14.4 78 2.3 WNW 13 19 7 10 1016.0 1016.0 0.0
20/04:00pm 18.6 17.6 14.7 78 2.3 W 13 19 7 10 1015.7 1015.7 0.0
20/03:30pm 18.7 17.7 14.6 77 2.4 W 13 17 7 9 1015.5 1015.5 0.0
20/03:00pm 19.0 18.6 15.1 78 2.3 WSW 11 15 6 8 1015.3 1015.3 0.0
20/02:30pm 19.4 17.8 14.9 75 2.7 WNW 17 20 9 11 1015.5 1015.5 0.0
20/02:00pm 19.6 18.4 15.0 75 2.7 WNW 15 24 8 13 1015.5 1015.5 0.0
20/01:30pm 19.9 17.7 14.5 71 3.2 NW 19 22 10 12 1015.4 1015.4 0.0
20/01:00pm 20.0 18.4 13.9 68 3.5 WNW 15 19 8 10 1015.3 1015.3 0.0
20/12:30pm 19.9 18.9 14.7 72 3.1 WNW 13 19 7 10 1015.5 1015.5 0.0
20/12:00pm 19.9 18.2 14.7 72 3.1 WNW 17 24 9 13 1016.1 1016.1 0.0
20/11:30am 20.2 18.9 14.8 71 3.2 W 15 20 8 11 1016.4 1016.4 0.0

Other Formats:

Comma delimited format used in spreadsheet applications
http://www.bom.gov.au/fwo/IDN60801/IDN60801.95708.axf

JavaScript Object Notation format (JSON) in row-major order
http://www.bom.gov.au/fwo/IDN60801/IDN60801.95708.json